sensor_id;sensor_type;location;lat;lon;timestamp;temperature;humidity
28761;DHT22;15917;50.014;8.352;2023-03-12T00:01:58;2.20;99.90
28761;DHT22;15917;50.014;8.352;2023-03-12T00:04:24;2.20;99.90
28761;DHT22;15917;50.014;8.352;2023-03-12T00:06:50;2.20;99.90
28761;DHT22;15917;50.014;8.352;2023-03-12T00:09:15;2.20;99.90
28761;DHT22;15917;50.014;8.352;2023-03-12T00:11:41;2.10;99.90
28761;DHT22;15917;50.014;8.352;2023-03-12T00:14:06;2.00;99.90
28761;DHT22;15917;50.014;8.352;2023-03-12T00:16:32;2.10;99.90
28761;DHT22;15917;50.014;8.352;2023-03-12T00:18:58;2.10;99.90
28761;DHT22;15917;50.014;8.352;2023-03-12T00:21:24;2.00;99.90
28761;DHT22;15917;50.014;8.352;2023-03-12T00:23:50;2.00;99.90
28761;DHT22;15917;50.014;8.352;2023-03-12T00:26:17;2.00;99.90
28761;DHT22;15917;50.014;8.352;2023-03-12T00:28:43;2.00;99.90
28761;DHT22;15917;50.014;8.352;2023-03-12T00:31:26;2.00;99.90
28761;DHT22;15917;50.014;8.352;2023-03-12T00:33:53;2.00;99.90
28761;DHT22;15917;50.014;8.352;2023-03-12T00:36:21;2.00;99.90
28761;DHT22;15917;50.014;8.352;2023-03-12T00:38:50;2.00;99.90
28761;DHT22;15917;50.014;8.352;2023-03-12T00:41:16;2.10;99.90
28761;DHT22;15917;50.014;8.352;2023-03-12T00:43:47;2.10;99.90
28761;DHT22;15917;50.014;8.352;2023-03-12T00:46:13;2.00;99.90
28761;DHT22;15917;50.014;8.352;2023-03-12T00:48:40;2.10;99.90
28761;DHT22;15917;50.014;8.352;2023-03-12T00:51:06;2.10;99.90
28761;DHT22;15917;50.014;8.352;2023-03-12T00:53:32;2.00;99.90
28761;DHT22;15917;50.014;8.352;2023-03-12T00:55:58;2.00;99.90
28761;DHT22;15917;50.014;8.352;2023-03-12T00:58:23;2.10;99.90
28761;DHT22;15917;50.014;8.352;2023-03-12T01:00:49;2.00;99.90
28761;DHT22;15917;50.014;8.352;2023-03-12T01:03:15;2.10;99.90
28761;DHT22;15917;50.014;8.352;2023-03-12T01:05:41;2.10;99.90
28761;DHT22;15917;50.014;8.352;2023-03-12T01:08:07;2.10;99.90
28761;DHT22;15917;50.014;8.352;2023-03-12T01:10:35;2.10;99.90
28761;DHT22;15917;50.014;8.352;2023-03-12T01:13:01;2.20;99.90
28761;DHT22;15917;50.014;8.352;2023-03-12T01:15:27;2.20;99.90
28761;DHT22;15917;50.014;8.352;2023-03-12T01:17:53;2.20;99.90
28761;DHT22;15917;50.014;8.352;2023-03-12T01:20:19;2.20;99.90
28761;DHT22;15917;50.014;8.352;2023-03-12T01:22:47;2.10;99.90
28761;DHT22;15917;50.014;8.352;2023-03-12T01:25:13;2.10;99.90
28761;DHT22;15917;50.014;8.352;2023-03-12T01:27:38;2.10;99.90
28761;DHT22;15917;50.014;8.352;2023-03-12T01:30:05;2.10;99.90
28761;DHT22;15917;50.014;8.352;2023-03-12T01:32:30;2.10;99.90
28761;DHT22;15917;50.014;8.352;2023-03-12T01:34:57;2.10;99.90
28761;DHT22;15917;50.014;8.352;2023-03-12T01:37:23;2.10;99.90
28761;DHT22;15917;50.014;8.352;2023-03-12T01:39:49;2.20;99.90
28761;DHT22;15917;50.014;8.352;2023-03-12T01:42:14;2.20;99.90
28761;DHT22;15917;50.014;8.352;2023-03-12T01:44:55;2.20;99.90
28761;DHT22;15917;50.014;8.352;2023-03-12T01:47:22;2.20;99.90
28761;DHT22;15917;50.014;8.352;2023-03-12T01:49:49;2.10;99.90
28761;DHT22;15917;50.014;8.352;2023-03-12T01:52:27;2.10;99.90
28761;DHT22;15917;50.014;8.352;2023-03-12T01:55:04;2.20;99.90
28761;DHT22;15917;50.014;8.352;2023-03-12T01:57:36;2.10;99.90
28761;DHT22;15917;50.014;8.352;2023-03-12T02:00:19;2.10;99.90
28761;DHT22;15917;50.014;8.352;2023-03-12T02:02:47;2.10;99.90
28761;DHT22;15917;50.014;8.352;2023-03-12T02:05:28;2.00;99.90
28761;DHT22;15917;50.014;8.352;2023-03-12T02:07:54;2.00;99.90
28761;DHT22;15917;50.014;8.352;2023-03-12T02:10:21;2.00;99.90
28761;DHT22;15917;50.014;8.352;2023-03-12T02:12:47;2.00;99.90
28761;DHT22;15917;50.014;8.352;2023-03-12T02:15:13;2.00;99.90
28761;DHT22;15917;50.014;8.352;2023-03-12T02:17:39;1.90;99.90
28761;DHT22;15917;50.014;8.352;2023-03-12T02:22:42;1.70;99.90
28761;DHT22;15917;50.014;8.352;2023-03-12T02:25:33;1.70;99.90
28761;DHT22;15917;50.014;8.352;2023-03-12T02:28:02;1.70;99.90
28761;DHT22;15917;50.014;8.352;2023-03-12T02:30:29;1.80;99.90
28761;DHT22;15917;50.014;8.352;2023-03-12T02:32:58;1.90;99.90
28761;DHT22;15917;50.014;8.352;2023-03-12T02:35:25;1.90;99.90
28761;DHT22;15917;50.014;8.352;2023-03-12T02:37:55;1.90;99.90
28761;DHT22;15917;50.014;8.352;2023-03-12T02:40:33;2.00;99.90
28761;DHT22;15917;50.014;8.352;2023-03-12T02:43:02;2.00;99.90
28761;DHT22;15917;50.014;8.352;2023-03-12T02:45:30;2.00;99.90
28761;DHT22;15917;50.014;8.352;2023-03-12T02:47:56;2.00;99.90
28761;DHT22;15917;50.014;8.352;2023-03-12T02:50:22;2.00;99.90
28761;DHT22;15917;50.014;8.352;2023-03-12T02:52:47;1.90;99.90
28761;DHT22;15917;50.014;8.352;2023-03-12T02:55:13;1.90;99.90
28761;DHT22;15917;50.014;8.352;2023-03-12T02:57:39;1.90;99.90
28761;DHT22;15917;50.014;8.352;2023-03-12T03:00:09;1.90;99.90
28761;DHT22;15917;50.014;8.352;2023-03-12T03:02:42;1.90;99.90
28761;DHT22;15917;50.014;8.352;2023-03-12T03:05:11;1.90;99.90
28761;DHT22;15917;50.014;8.352;2023-03-12T03:07:38;1.90;99.90
28761;DHT22;15917;50.014;8.352;2023-03-12T03:10:04;1.90;99.90
28761;DHT22;15917;50.014;8.352;2023-03-12T03:12:35;1.90;99.90
28761;DHT22;15917;50.014;8.352;2023-03-12T03:15:01;1.80;99.90
28761;DHT22;15917;50.014;8.352;2023-03-12T03:17:27;1.80;99.90
28761;DHT22;15917;50.014;8.352;2023-03-12T03:19:53;1.80;99.90
28761;DHT22;15917;50.014;8.352;2023-03-12T03:22:20;1.70;99.90
28761;DHT22;15917;50.014;8.352;2023-03-12T03:24:46;1.70;99.90
28761;DHT22;15917;50.014;8.352;2023-03-12T03:27:12;1.70;99.90
28761;DHT22;15917;50.014;8.352;2023-03-12T03:29:39;1.70;99.90
28761;DHT22;15917;50.014;8.352;2023-03-12T03:32:05;1.80;99.90
28761;DHT22;15917;50.014;8.352;2023-03-12T03:34:31;1.80;99.90
28761;DHT22;15917;50.014;8.352;2023-03-12T03:36:57;1.80;99.90
28761;DHT22;15917;50.014;8.352;2023-03-12T03:39:23;1.80;99.90
28761;DHT22;15917;50.014;8.352;2023-03-12T03:41:50;1.70;99.90
28761;DHT22;15917;50.014;8.352;2023-03-12T03:44:18;1.60;99.90
28761;DHT22;15917;50.014;8.352;2023-03-12T03:46:44;1.60;99.90
28761;DHT22;15917;50.014;8.352;2023-03-12T03:49:12;1.60;99.90
28761;DHT22;15917;50.014;8.352;2023-03-12T03:51:39;1.60;99.90
28761;DHT22;15917;50.014;8.352;2023-03-12T03:54:09;1.50;99.90
28761;DHT22;15917;50.014;8.352;2023-03-12T03:56:35;1.50;99.90
28761;DHT22;15917;50.014;8.352;2023-03-12T03:59:03;1.50;99.90
28761;DHT22;15917;50.014;8.352;2023-03-12T04:01:30;1.60;99.90
28761;DHT22;15917;50.014;8.352;2023-03-12T04:03:57;1.60;99.90
28761;DHT22;15917;50.014;8.352;2023-03-12T04:06:23;1.60;99.90
28761;DHT22;15917;50.014;8.352;2023-03-12T04:08:49;1.70;99.90
28761;DHT22;15917;50.014;8.352;2023-03-12T04:11:19;1.70;99.90
28761;DHT22;15917;50.014;8.352;2023-03-12T04:13:46;1.70;99.90
28761;DHT22;15917;50.014;8.352;2023-03-12T04:16:14;1.70;99.90
28761;DHT22;15917;50.014;8.352;2023-03-12T04:18:41;1.70;99.90
28761;DHT22;15917;50.014;8.352;2023-03-12T04:21:08;1.80;99.90
28761;DHT22;15917;50.014;8.352;2023-03-12T04:23:35;1.80;99.90
28761;DHT22;15917;50.014;8.352;2023-03-12T04:26:02;1.90;99.90
28761;DHT22;15917;50.014;8.352;2023-03-12T04:28:28;1.80;99.90
28761;DHT22;15917;50.014;8.352;2023-03-12T04:30:56;1.90;99.90
28761;DHT22;15917;50.014;8.352;2023-03-12T04:33:34;1.90;99.90
28761;DHT22;15917;50.014;8.352;2023-03-12T04:36:00;1.90;99.90
28761;DHT22;15917;50.014;8.352;2023-03-12T04:38:27;1.90;99.90
28761;DHT22;15917;50.014;8.352;2023-03-12T04:41:06;1.90;99.90
28761;DHT22;15917;50.014;8.352;2023-03-12T04:43:33;1.90;99.90
28761;DHT22;15917;50.014;8.352;2023-03-12T04:46:00;1.90;99.90
28761;DHT22;15917;50.014;8.352;2023-03-12T04:48:26;1.80;99.90
28761;DHT22;15917;50.014;8.352;2023-03-12T04:50:52;1.90;99.90
28761;DHT22;15917;50.014;8.352;2023-03-12T04:53:19;1.90;99.90
28761;DHT22;15917;50.014;8.352;2023-03-12T04:55:47;1.90;99.90
28761;DHT22;15917;50.014;8.352;2023-03-12T04:58:14;1.90;99.90
28761;DHT22;15917;50.014;8.352;2023-03-12T05:00:40;2.00;99.90
28761;DHT22;15917;50.014;8.352;2023-03-12T05:03:06;2.00;99.90
28761;DHT22;15917;50.014;8.352;2023-03-12T05:05:33;2.00;99.90
28761;DHT22;15917;50.014;8.352;2023-03-12T05:07:58;2.00;99.90
28761;DHT22;15917;50.014;8.352;2023-03-12T05:10:24;2.00;99.90
28761;DHT22;15917;50.014;8.352;2023-03-12T05:12:50;2.00;99.90
28761;DHT22;15917;50.014;8.352;2023-03-12T05:15:17;2.00;99.90
28761;DHT22;15917;50.014;8.352;2023-03-12T05:17:44;2.00;99.90
28761;DHT22;15917;50.014;8.352;2023-03-12T05:20:11;2.00;99.90
28761;DHT22;15917;50.014;8.352;2023-03-12T05:22:37;2.00;99.90
28761;DHT22;15917;50.014;8.352;2023-03-12T05:25:04;2.00;99.90
28761;DHT22;15917;50.014;8.352;2023-03-12T05:27:31;1.90;99.90
28761;DHT22;15917;50.014;8.352;2023-03-12T05:29:57;1.90;99.90
28761;DHT22;15917;50.014;8.352;2023-03-12T05:32:23;1.90;99.90
28761;DHT22;15917;50.014;8.352;2023-03-12T05:34:49;1.90;99.90
28761;DHT22;15917;50.014;8.352;2023-03-12T05:37:15;1.80;99.90
28761;DHT22;15917;50.014;8.352;2023-03-12T05:39:41;1.80;99.90
28761;DHT22;15917;50.014;8.352;2023-03-12T05:42:13;1.70;99.90
28761;DHT22;15917;50.014;8.352;2023-03-12T05:44:39;1.70;99.90
28761;DHT22;15917;50.014;8.352;2023-03-12T05:47:06;1.70;99.90
28761;DHT22;15917;50.014;8.352;2023-03-12T05:49:31;1.70;99.90
28761;DHT22;15917;50.014;8.352;2023-03-12T05:51:57;1.70;99.90
28761;DHT22;15917;50.014;8.352;2023-03-12T05:54:24;1.80;99.90
28761;DHT22;15917;50.014;8.352;2023-03-12T05:56:50;1.80;99.90
28761;DHT22;15917;50.014;8.352;2023-03-12T05:59:18;1.80;99.90
28761;DHT22;15917;50.014;8.352;2023-03-12T06:01:44;1.80;99.90
28761;DHT22;15917;50.014;8.352;2023-03-12T06:04:10;1.80;99.90
28761;DHT22;15917;50.014;8.352;2023-03-12T06:06:37;1.90;99.90
28761;DHT22;15917;50.014;8.352;2023-03-12T06:09:04;1.90;99.90
28761;DHT22;15917;50.014;8.352;2023-03-12T06:11:31;2.00;99.90
28761;DHT22;15917;50.014;8.352;2023-03-12T06:13:57;2.00;99.90
28761;DHT22;15917;50.014;8.352;2023-03-12T06:16:25;2.00;99.90
28761;DHT22;15917;50.014;8.352;2023-03-12T06:18:56;2.10;99.90
28761;DHT22;15917;50.014;8.352;2023-03-12T06:21:24;2.00;99.90
28761;DHT22;15917;50.014;8.352;2023-03-12T06:23:51;2.00;99.90
28761;DHT22;15917;50.014;8.352;2023-03-12T06:26:22;1.90;99.90
28761;DHT22;15917;50.014;8.352;2023-03-12T06:28:48;1.90;99.90
28761;DHT22;15917;50.014;8.352;2023-03-12T06:31:15;1.80;99.90
28761;DHT22;15917;50.014;8.352;2023-03-12T06:33:40;1.80;99.90
28761;DHT22;15917;50.014;8.352;2023-03-12T06:36:07;1.80;99.90
28761;DHT22;15917;50.014;8.352;2023-03-12T06:38:34;1.80;99.90
28761;DHT22;15917;50.014;8.352;2023-03-12T06:41:04;1.80;99.90
28761;DHT22;15917;50.014;8.352;2023-03-12T06:43:32;1.90;99.90
28761;DHT22;15917;50.014;8.352;2023-03-12T06:45:59;2.00;99.90
28761;DHT22;15917;50.014;8.352;2023-03-12T06:48:26;1.90;99.90
28761;DHT22;15917;50.014;8.352;2023-03-12T06:50:52;1.90;99.90
28761;DHT22;15917;50.014;8.352;2023-03-12T06:53:19;1.90;99.90
28761;DHT22;15917;50.014;8.352;2023-03-12T06:55:45;2.00;99.90
28761;DHT22;15917;50.014;8.352;2023-03-12T06:58:11;2.00;99.90
28761;DHT22;15917;50.014;8.352;2023-03-12T07:00:37;2.10;99.90
28761;DHT22;15917;50.014;8.352;2023-03-12T07:03:03;2.00;99.90
28761;DHT22;15917;50.014;8.352;2023-03-12T07:05:29;1.90;99.90
28761;DHT22;15917;50.014;8.352;2023-03-12T07:07:55;1.90;99.90
28761;DHT22;15917;50.014;8.352;2023-03-12T07:10:21;1.80;99.90
28761;DHT22;15917;50.014;8.352;2023-03-12T07:12:47;1.70;99.90
28761;DHT22;15917;50.014;8.352;2023-03-12T07:15:13;1.60;99.90
28761;DHT22;15917;50.014;8.352;2023-03-12T07:17:39;1.60;99.90
28761;DHT22;15917;50.014;8.352;2023-03-12T07:20:05;1.60;99.90
28761;DHT22;15917;50.014;8.352;2023-03-12T07:22:31;1.60;99.90
28761;DHT22;15917;50.014;8.352;2023-03-12T07:24:56;1.50;99.90
28761;DHT22;15917;50.014;8.352;2023-03-12T07:27:22;1.40;99.90
28761;DHT22;15917;50.014;8.352;2023-03-12T07:29:48;1.50;99.90
28761;DHT22;15917;50.014;8.352;2023-03-12T07:32:14;1.50;99.90
28761;DHT22;15917;50.014;8.352;2023-03-12T07:34:40;1.40;99.90
28761;DHT22;15917;50.014;8.352;2023-03-12T07:37:06;1.40;99.90
28761;DHT22;15917;50.014;8.352;2023-03-12T07:39:31;1.40;99.90
28761;DHT22;15917;50.014;8.352;2023-03-12T07:41:57;1.40;99.90
28761;DHT22;15917;50.014;8.352;2023-03-12T07:44:23;1.50;99.90
28761;DHT22;15917;50.014;8.352;2023-03-12T07:46:51;1.50;99.90
28761;DHT22;15917;50.014;8.352;2023-03-12T07:49:16;1.50;99.90
28761;DHT22;15917;50.014;8.352;2023-03-12T07:51:42;1.50;99.90
28761;DHT22;15917;50.014;8.352;2023-03-12T07:54:08;1.50;99.90
28761;DHT22;15917;50.014;8.352;2023-03-12T07:56:33;1.50;99.90
28761;DHT22;15917;50.014;8.352;2023-03-12T07:58:59;1.60;99.90
28761;DHT22;15917;50.014;8.352;2023-03-12T08:01:25;1.60;99.90
28761;DHT22;15917;50.014;8.352;2023-03-12T08:03:57;1.60;99.90
28761;DHT22;15917;50.014;8.352;2023-03-12T08:06:22;1.60;99.90
28761;DHT22;15917;50.014;8.352;2023-03-12T08:08:48;1.60;99.90
28761;DHT22;15917;50.014;8.352;2023-03-12T08:11:14;1.70;99.90
28761;DHT22;15917;50.014;8.352;2023-03-12T08:13:40;1.70;99.90
28761;DHT22;15917;50.014;8.352;2023-03-12T08:16:05;1.70;99.90
28761;DHT22;15917;50.014;8.352;2023-03-12T08:18:31;1.80;99.90
28761;DHT22;15917;50.014;8.352;2023-03-12T08:20:57;1.80;99.90
28761;DHT22;15917;50.014;8.352;2023-03-12T08:23:22;1.90;99.90
28761;DHT22;15917;50.014;8.352;2023-03-12T08:25:49;1.90;99.90
28761;DHT22;15917;50.014;8.352;2023-03-12T08:28:16;1.90;99.90
28761;DHT22;15917;50.014;8.352;2023-03-12T08:30:50;1.80;99.90
28761;DHT22;15917;50.014;8.352;2023-03-12T08:33:16;1.80;99.90
28761;DHT22;15917;50.014;8.352;2023-03-12T08:35:42;1.80;99.90
28761;DHT22;15917;50.014;8.352;2023-03-12T08:38:07;1.80;99.90
28761;DHT22;15917;50.014;8.352;2023-03-12T08:40:33;1.90;99.90
28761;DHT22;15917;50.014;8.352;2023-03-12T08:42:59;1.90;99.90
28761;DHT22;15917;50.014;8.352;2023-03-12T08:45:25;2.00;99.90
28761;DHT22;15917;50.014;8.352;2023-03-12T08:47:51;1.90;99.90
28761;DHT22;15917;50.014;8.352;2023-03-12T08:50:16;1.80;99.90
28761;DHT22;15917;50.014;8.352;2023-03-12T08:52:43;1.80;99.90
28761;DHT22;15917;50.014;8.352;2023-03-12T08:55:10;1.80;99.90
28761;DHT22;15917;50.014;8.352;2023-03-12T08:57:36;1.90;99.90
28761;DHT22;15917;50.014;8.352;2023-03-12T09:00:03;2.20;99.90
28761;DHT22;15917;50.014;8.352;2023-03-12T09:02:30;2.30;99.90
28761;DHT22;15917;50.014;8.352;2023-03-12T09:04:56;2.50;99.90
28761;DHT22;15917;50.014;8.352;2023-03-12T09:07:21;2.60;99.90
28761;DHT22;15917;50.014;8.352;2023-03-12T09:09:47;2.60;99.90
28761;DHT22;15917;50.014;8.352;2023-03-12T09:12:12;2.50;99.90
28761;DHT22;15917;50.014;8.352;2023-03-12T09:14:38;2.50;99.90
28761;DHT22;15917;50.014;8.352;2023-03-12T09:17:04;2.40;99.90
28761;DHT22;15917;50.014;8.352;2023-03-12T09:19:30;2.40;99.90
28761;DHT22;15917;50.014;8.352;2023-03-12T09:21:56;2.30;99.90
28761;DHT22;15917;50.014;8.352;2023-03-12T09:24:22;2.30;99.90
28761;DHT22;15917;50.014;8.352;2023-03-12T09:26:47;3.10;99.90
28761;DHT22;15917;50.014;8.352;2023-03-12T09:29:13;3.60;99.90
28761;DHT22;15917;50.014;8.352;2023-03-12T09:31:39;3.80;99.90
28761;DHT22;15917;50.014;8.352;2023-03-12T09:34:05;3.80;99.90
28761;DHT22;15917;50.014;8.352;2023-03-12T09:36:31;3.60;99.90
28761;DHT22;15917;50.014;8.352;2023-03-12T09:38:56;3.20;99.90
28761;DHT22;15917;50.014;8.352;2023-03-12T09:41:31;3.00;99.90
28761;DHT22;15917;50.014;8.352;2023-03-12T09:44:09;2.80;99.90
28761;DHT22;15917;50.014;8.352;2023-03-12T09:46:37;2.80;99.90
28761;DHT22;15917;50.014;8.352;2023-03-12T09:49:13;2.80;99.90
28761;DHT22;15917;50.014;8.352;2023-03-12T09:51:43;2.80;99.90
28761;DHT22;15917;50.014;8.352;2023-03-12T09:54:33;2.70;99.90
28761;DHT22;15917;50.014;8.352;2023-03-12T09:57:03;2.70;99.90
28761;DHT22;15917;50.014;8.352;2023-03-12T09:59:33;2.70;99.90
28761;DHT22;15917;50.014;8.352;2023-03-12T10:02:01;2.70;99.90
28761;DHT22;15917;50.014;8.352;2023-03-12T10:04:44;2.80;99.90
28761;DHT22;15917;50.014;8.352;2023-03-12T10:10:27;2.90;99.90
28761;DHT22;15917;50.014;8.352;2023-03-12T10:13:20;3.00;99.90
28761;DHT22;15917;50.014;8.352;2023-03-12T10:16:06;3.00;99.90
28761;DHT22;15917;50.014;8.352;2023-03-12T10:27:34;3.20;99.90
28761;DHT22;15917;50.014;8.352;2023-03-12T10:30:04;3.20;99.90
28761;DHT22;15917;50.014;8.352;2023-03-12T10:32:41;3.30;99.90
28761;DHT22;15917;50.014;8.352;2023-03-12T10:35:20;3.40;99.90
28761;DHT22;15917;50.014;8.352;2023-03-12T10:37:56;3.40;99.90
28761;DHT22;15917;50.014;8.352;2023-03-12T10:40:31;3.50;99.90
28761;DHT22;15917;50.014;8.352;2023-03-12T10:42:58;3.50;99.90
28761;DHT22;15917;50.014;8.352;2023-03-12T10:48:09;3.70;99.90
28761;DHT22;15917;50.014;8.352;2023-03-12T10:50:38;3.70;99.90
28761;DHT22;15917;50.014;8.352;2023-03-12T10:53:31;3.70;99.90
28761;DHT22;15917;50.014;8.352;2023-03-12T10:58:35;3.60;99.90
28761;DHT22;15917;50.014;8.352;2023-03-12T11:01:03;3.60;99.90
28761;DHT22;15917;50.014;8.352;2023-03-12T11:03:29;3.60;99.90
28761;DHT22;15917;50.014;8.352;2023-03-12T11:05:58;3.70;99.90
28761;DHT22;15917;50.014;8.352;2023-03-12T11:08:35;3.80;99.90
28761;DHT22;15917;50.014;8.352;2023-03-12T11:11:02;3.80;99.90
28761;DHT22;15917;50.014;8.352;2023-03-12T11:13:34;3.80;99.90
28761;DHT22;15917;50.014;8.352;2023-03-12T11:18:56;4.00;99.90
28761;DHT22;15917;50.014;8.352;2023-03-12T11:21:24;4.80;99.90
28761;DHT22;15917;50.014;8.352;2023-03-12T11:26:30;4.90;99.90
28761;DHT22;15917;50.014;8.352;2023-03-12T11:29:04;5.10;99.90
28761;DHT22;15917;50.014;8.352;2023-03-12T11:31:36;5.10;99.90
28761;DHT22;15917;50.014;8.352;2023-03-12T11:34:06;5.00;99.90
28761;DHT22;15917;50.014;8.352;2023-03-12T11:36:48;4.90;99.90
28761;DHT22;15917;50.014;8.352;2023-03-12T11:39:21;4.90;99.90
28761;DHT22;15917;50.014;8.352;2023-03-12T11:42:18;5.00;99.90
28761;DHT22;15917;50.014;8.352;2023-03-12T11:50:12;5.00;99.90
28761;DHT22;15917;50.014;8.352;2023-03-12T11:55:50;5.10;99.90
28761;DHT22;15917;50.014;8.352;2023-03-12T11:58:25;5.00;99.90
28761;DHT22;15917;50.014;8.352;2023-03-12T12:12:33;5.10;99.90
28761;DHT22;15917;50.014;8.352;2023-03-12T12:15:21;5.30;99.90
28761;DHT22;15917;50.014;8.352;2023-03-12T12:20:57;5.50;99.90
28761;DHT22;15917;50.014;8.352;2023-03-12T12:26:32;5.90;99.90
28761;DHT22;15917;50.014;8.352;2023-03-12T12:31:52;6.00;99.90
28761;DHT22;15917;50.014;8.352;2023-03-12T12:39:40;6.60;99.90
28761;DHT22;15917;50.014;8.352;2023-03-12T12:42:12;6.60;99.90
28761;DHT22;15917;50.014;8.352;2023-03-12T12:44:50;6.60;99.90
28761;DHT22;15917;50.014;8.352;2023-03-12T12:47:39;6.60;99.90
28761;DHT22;15917;50.014;8.352;2023-03-12T12:50:21;6.60;99.90
28761;DHT22;15917;50.014;8.352;2023-03-12T12:55:53;6.60;99.90
28761;DHT22;15917;50.014;8.352;2023-03-12T12:58:25;6.60;99.90
28761;DHT22;15917;50.014;8.352;2023-03-12T13:00:56;6.50;99.90
28761;DHT22;15917;50.014;8.352;2023-03-12T13:03:24;6.50;99.90
28761;DHT22;15917;50.014;8.352;2023-03-12T13:22:00;7.00;99.90
28761;DHT22;15917;50.014;8.352;2023-03-12T13:24:41;7.20;99.90
28761;DHT22;15917;50.014;8.352;2023-03-12T13:27:18;7.40;99.90
28761;DHT22;15917;50.014;8.352;2023-03-12T13:29:45;7.50;99.90
28761;DHT22;15917;50.014;8.352;2023-03-12T13:34:59;8.30;99.90
28761;DHT22;15917;50.014;8.352;2023-03-12T13:37:58;8.40;99.90
28761;DHT22;15917;50.014;8.352;2023-03-12T13:43:10;8.10;99.90
28761;DHT22;15917;50.014;8.352;2023-03-12T13:48:21;7.90;99.90
28761;DHT22;15917;50.014;8.352;2023-03-12T13:50:59;7.90;99.90
28761;DHT22;15917;50.014;8.352;2023-03-12T13:53:32;8.00;99.90
28761;DHT22;15917;50.014;8.352;2023-03-12T13:56:06;8.10;99.90
28761;DHT22;15917;50.014;8.352;2023-03-12T13:58:40;8.10;99.90
28761;DHT22;15917;50.014;8.352;2023-03-12T14:01:13;8.10;99.90
28761;DHT22;15917;50.014;8.352;2023-03-12T14:03:44;8.00;99.90
28761;DHT22;15917;50.014;8.352;2023-03-12T14:06:17;8.00;99.90
28761;DHT22;15917;50.014;8.352;2023-03-12T14:11:47;8.00;99.90
28761;DHT22;15917;50.014;8.352;2023-03-12T14:17:22;8.00;99.90
28761;DHT22;15917;50.014;8.352;2023-03-12T14:20:18;8.00;99.90
28761;DHT22;15917;50.014;8.352;2023-03-12T14:22:50;7.90;99.90
28761;DHT22;15917;50.014;8.352;2023-03-12T14:25:26;7.90;99.90
28761;DHT22;15917;50.014;8.352;2023-03-12T14:27:53;7.90;99.90
28761;DHT22;15917;50.014;8.352;2023-03-12T14:30:22;8.00;99.90
28761;DHT22;15917;50.014;8.352;2023-03-12T14:32:54;8.00;99.90
28761;DHT22;15917;50.014;8.352;2023-03-12T14:35:27;8.00;99.90
28761;DHT22;15917;50.014;8.352;2023-03-12T14:38:02;8.10;99.90
28761;DHT22;15917;50.014;8.352;2023-03-12T14:41:10;8.10;99.90
28761;DHT22;15917;50.014;8.352;2023-03-12T14:43:40;8.20;99.90
28761;DHT22;15917;50.014;8.352;2023-03-12T14:46:15;8.30;99.90
28761;DHT22;15917;50.014;8.352;2023-03-12T14:48:41;8.30;99.90
28761;DHT22;15917;50.014;8.352;2023-03-12T14:51:07;8.30;99.90
28761;DHT22;15917;50.014;8.352;2023-03-12T14:53:41;8.30;99.90
28761;DHT22;15917;50.014;8.352;2023-03-12T14:56:15;8.40;99.90
28761;DHT22;15917;50.014;8.352;2023-03-12T14:58:49;8.40;99.90
28761;DHT22;15917;50.014;8.352;2023-03-12T15:01:20;8.40;99.90
28761;DHT22;15917;50.014;8.352;2023-03-12T15:03:54;8.50;99.90
28761;DHT22;15917;50.014;8.352;2023-03-12T15:08:56;8.70;99.90
28761;DHT22;15917;50.014;8.352;2023-03-12T15:11:24;8.70;99.90
28761;DHT22;15917;50.014;8.352;2023-03-12T15:13:52;8.80;99.90
28761;DHT22;15917;50.014;8.352;2023-03-12T15:16:18;8.70;99.90
28761;DHT22;15917;50.014;8.352;2023-03-12T15:18:44;8.60;99.90
28761;DHT22;15917;50.014;8.352;2023-03-12T15:21:12;8.60;99.90
28761;DHT22;15917;50.014;8.352;2023-03-12T15:23:38;8.60;99.90
28761;DHT22;15917;50.014;8.352;2023-03-12T15:26:10;8.60;99.90
28761;DHT22;15917;50.014;8.352;2023-03-12T15:28:35;8.50;99.90
28761;DHT22;15917;50.014;8.352;2023-03-12T15:31:13;8.50;99.90
28761;DHT22;15917;50.014;8.352;2023-03-12T15:33:41;8.50;99.90
28761;DHT22;15917;50.014;8.352;2023-03-12T15:36:22;8.50;99.90
28761;DHT22;15917;50.014;8.352;2023-03-12T15:38:54;8.50;99.90
28761;DHT22;15917;50.014;8.352;2023-03-12T15:41:24;8.40;99.90
28761;DHT22;15917;50.014;8.352;2023-03-12T15:43:55;8.40;99.90
28761;DHT22;15917;50.014;8.352;2023-03-12T15:46:22;8.20;99.90
28761;DHT22;15917;50.014;8.352;2023-03-12T15:48:50;8.20;99.90
28761;DHT22;15917;50.014;8.352;2023-03-12T15:54:02;8.10;99.90
28761;DHT22;15917;50.014;8.352;2023-03-12T15:56:31;8.20;99.90
28761;DHT22;15917;50.014;8.352;2023-03-12T15:59:03;8.20;99.90
28761;DHT22;15917;50.014;8.352;2023-03-12T16:01:43;8.20;99.90
28761;DHT22;15917;50.014;8.352;2023-03-12T16:04:08;8.20;99.90
28761;DHT22;15917;50.014;8.352;2023-03-12T16:06:34;8.20;99.90
28761;DHT22;15917;50.014;8.352;2023-03-12T16:09:02;8.30;99.90
28761;DHT22;15917;50.014;8.352;2023-03-12T16:11:34;8.30;99.90
28761;DHT22;15917;50.014;8.352;2023-03-12T16:14:05;8.30;99.90
28761;DHT22;15917;50.014;8.352;2023-03-12T16:16:33;8.30;99.90
28761;DHT22;15917;50.014;8.352;2023-03-12T16:18:59;8.40;99.90
28761;DHT22;15917;50.014;8.352;2023-03-12T16:21:25;8.30;99.90
28761;DHT22;15917;50.014;8.352;2023-03-12T16:23:50;8.30;99.90
28761;DHT22;15917;50.014;8.352;2023-03-12T16:26:16;8.30;99.90
28761;DHT22;15917;50.014;8.352;2023-03-12T16:28:42;8.40;99.90
28761;DHT22;15917;50.014;8.352;2023-03-12T16:31:13;9.30;99.90
28761;DHT22;15917;50.014;8.352;2023-03-12T16:33:39;10.10;99.90
28761;DHT22;15917;50.014;8.352;2023-03-12T16:36:13;10.40;99.90
28761;DHT22;15917;50.014;8.352;2023-03-12T16:38:41;10.10;99.90
28761;DHT22;15917;50.014;8.352;2023-03-12T16:41:13;9.70;99.90
28761;DHT22;15917;50.014;8.352;2023-03-12T16:43:41;9.40;99.90
28761;DHT22;15917;50.014;8.352;2023-03-12T16:46:15;9.10;99.90
28761;DHT22;15917;50.014;8.352;2023-03-12T16:48:44;8.90;99.90
28761;DHT22;15917;50.014;8.352;2023-03-12T16:51:15;8.70;99.90
28761;DHT22;15917;50.014;8.352;2023-03-12T16:53:42;8.60;99.90
28761;DHT22;15917;50.014;8.352;2023-03-12T16:56:22;8.50;99.90
28761;DHT22;15917;50.014;8.352;2023-03-12T16:58:49;8.40;99.90
28761;DHT22;15917;50.014;8.352;2023-03-12T17:01:20;8.40;99.90
28761;DHT22;15917;50.014;8.352;2023-03-12T17:03:47;8.40;99.90
28761;DHT22;15917;50.014;8.352;2023-03-12T17:06:16;8.30;99.90
28761;DHT22;15917;50.014;8.352;2023-03-12T17:08:42;8.30;99.90
28761;DHT22;15917;50.014;8.352;2023-03-12T17:11:24;8.30;99.90
28761;DHT22;15917;50.014;8.352;2023-03-12T17:13:54;8.30;99.90
28761;DHT22;15917;50.014;8.352;2023-03-12T17:16:20;8.20;99.90
28761;DHT22;15917;50.014;8.352;2023-03-12T17:18:46;8.20;99.90
28761;DHT22;15917;50.014;8.352;2023-03-12T17:21:13;8.20;99.90
28761;DHT22;15917;50.014;8.352;2023-03-12T17:23:40;8.30;99.90
28761;DHT22;15917;50.014;8.352;2023-03-12T17:26:06;8.30;99.90
28761;DHT22;15917;50.014;8.352;2023-03-12T17:28:31;8.30;99.90
28761;DHT22;15917;50.014;8.352;2023-03-12T17:30:57;8.20;99.90
28761;DHT22;15917;50.014;8.352;2023-03-12T17:33:23;8.20;99.90
28761;DHT22;15917;50.014;8.352;2023-03-12T17:36:01;8.20;99.90